Time;durP1;ratioP1;P1;durP2;ratioP2;P2;SDS_P1;SDS_P2;PMS_P1;PMS_P2;Temp;Humidity;BMP_temperature;BMP_pressure;BME280_temperature;BME280_humidity;BME280_pressure;Samples;Min_cycle;Max_cycle;Signal;HPM_P1;HPM_P2
2021/10/30 00:01:52;;;;;;;11.52;7.75;;;;;;;9.40;82.80;100287.84;5011075;28;20057;-85
2021/10/30 00:04:20;;;;;;;9.77;5.88;;;;;;;9.37;82.17;100287.88;5029149;28;20069;-83
2021/10/30 00:06:46;;;;;;;7.72;6.25;;;;;;;9.34;82.66;100292.28;5028414;28;20063;-86
2021/10/30 00:09:14;;;;;;;7.43;5.97;;;;;;;9.30;82.88;100293.19;5015814;28;20037;-85
2021/10/30 00:11:41;;;;;;;6.70;5.55;;;;;;;9.30;83.13;100299.25;5036600;28;20049;-83
2021/10/30 00:14:08;;;;;;;9.57;7.45;;;;;;;9.29;82.75;100292.31;5008216;28;20423;-85
2021/10/30 00:16:37;;;;;;;9.18;6.38;;;;;;;9.27;83.04;100291.47;5029526;28;20055;-84
2021/10/30 00:19:07;;;;;;;8.60;6.43;;;;;;;9.26;83.13;100293.19;5041972;28;21234;-83
2021/10/30 00:21:34;;;;;;;9.15;6.68;;;;;;;9.23;82.93;100294.97;5034341;28;20060;-85
2021/10/30 00:24:04;;;;;;;10.02;7.00;;;;;;;9.26;82.99;100284.50;5014172;28;20065;-86
2021/10/30 00:26:31;;;;;;;8.65;7.07;;;;;;;9.27;83.12;100292.31;5016454;28;20044;-85
2021/10/30 00:28:59;;;;;;;9.65;6.25;;;;;;;9.26;82.85;100287.13;5032860;28;20143;-84
2021/10/30 00:31:27;;;;;;;13.88;7.90;;;;;;;9.23;83.28;100284.50;5007861;28;20048;-85
2021/10/30 00:33:54;;;;;;;12.57;8.27;;;;;;;9.21;83.49;100283.69;5020452;28;20543;-85
2021/10/30 00:36:21;;;;;;;8.05;6.70;;;;;;;9.20;83.45;100279.31;5017148;28;20131;-86
2021/10/30 00:38:48;;;;;;;8.45;6.85;;;;;;;9.19;83.55;100286.31;5013616;28;20048;-87
2021/10/30 00:41:15;;;;;;;8.77;6.47;;;;;;;9.17;83.51;100293.28;5018219;28;20123;-86
2021/10/30 00:43:48;;;;;;;9.10;7.10;;;;;;;9.16;83.77;100285.47;5035902;28;20040;-84
2021/10/30 00:46:16;;;;;;;10.05;7.03;;;;;;;9.15;83.62;100288.94;5035354;28;20484;-85
2021/10/30 00:48:43;;;;;;;13.68;7.00;;;;;;;9.12;83.42;100284.63;4995168;28;20087;-85
2021/10/30 00:51:17;;;;;;;12.15;7.70;;;;;;;9.07;83.98;100284.69;5015647;28;20071;-84
2021/10/30 00:53:47;;;;;;;12.93;8.02;;;;;;;9.06;83.79;100276.84;5041630;28;20041;-84
2021/10/30 00:56:16;;;;;;;8.55;7.35;;;;;;;9.03;83.94;100289.94;5050460;28;20055;-84
2021/10/30 00:58:46;;;;;;;14.95;7.75;;;;;;;9.02;84.22;100288.19;5020824;28;20171;-84
2021/10/30 01:01:14;;;;;;;8.27;7.07;;;;;;;9.01;84.03;100287.34;5025835;28;20054;-85
2021/10/30 01:03:44;;;;;;;8.70;6.93;;;;;;;9.01;83.95;100294.28;5032775;28;20041;-86
2021/10/30 01:06:13;;;;;;;12.32;7.20;;;;;;;8.95;84.23;100292.59;5014378;28;20669;-84
2021/10/30 01:08:41;;;;;;;13.40;7.88;;;;;;;8.92;84.57;100296.09;5012288;28;20057;-84
2021/10/30 01:11:08;;;;;;;10.57;7.55;;;;;;;8.91;84.62;100296.13;5015643;28;20452;-85
2021/10/30 01:13:36;;;;;;;11.68;7.60;;;;;;;8.92;85.09;100300.47;5026974;28;20068;-84
2021/10/30 01:16:03;;;;;;;10.18;7.95;;;;;;;8.92;84.86;100300.47;5063352;28;20068;-84
2021/10/30 01:18:33;;;;;;;9.18;7.43;;;;;;;8.92;84.52;100303.94;5048732;28;20052;-83
2021/10/30 01:21:03;;;;;;;8.70;7.05;;;;;;;8.91;84.57;100299.56;5045150;28;20045;-84
2021/10/30 01:23:30;;;;;;;13.90;8.18;;;;;;;8.92;84.98;100295.25;5028626;28;20037;-84
2021/10/30 01:26:11;;;;;;;9.13;7.30;;;;;;;8.90;84.94;100295.25;5034417;28;20117;-82
2021/10/30 01:28:40;;;;;;;9.65;8.02;;;;;;;8.86;84.79;100303.97;5036365;28;20130;-85
2021/10/30 01:31:21;;;;;;;12.82;9.75;;;;;;;8.80;85.60;100301.44;5017955;28;20063;-82
2021/10/30 01:33:52;;;;;;;10.73;8.10;;;;;;;8.75;85.79;100292.75;5016377;28;20041;-85
2021/10/30 01:36:22;;;;;;;8.93;7.53;;;;;;;8.71;85.91;100288.44;5032058;28;20577;-84
2021/10/30 01:38:50;;;;;;;10.93;7.38;;;;;;;8.65;86.21;100285.88;5028692;28;20053;-83
2021/10/30 01:41:18;;;;;;;10.35;8.02;;;;;;;8.59;86.70;100285.03;5029193;28;20045;-86
2021/10/30 01:43:45;;;;;;;9.93;8.05;;;;;;;8.58;86.54;100282.44;5018927;28;20049;-84
2021/10/30 01:46:19;;;;;;;10.32;8.20;;;;;;;8.55;86.61;100282.44;5029724;28;20045;-83
2021/10/30 01:48:47;;;;;;;13.40;7.93;;;;;;;8.52;86.98;100282.47;5009438;28;20049;-84
2021/10/30 01:51:14;;;;;;;10.00;7.80;;;;;;;8.49;86.85;100272.94;5032878;28;20059;-85
2021/10/30 01:53:41;;;;;;;10.23;7.70;;;;;;;8.48;87.39;100273.81;5009471;28;20506;-86
2021/10/30 01:56:07;;;;;;;10.48;8.38;;;;;;;8.47;87.14;100286.84;5028584;28;20122;-85
2021/10/30 01:58:34;;;;;;;11.27;7.53;;;;;;;8.42;87.31;100282.50;5028137;28;20076;-86
2021/10/30 02:01:01;;;;;;;12.85;8.07;;;;;;;8.40;87.51;100279.03;5013198;28;20053;-85
2021/10/30 02:03:31;;;;;;;10.63;7.45;;;;;;;8.40;87.80;100283.41;5031502;28;20053;-83
2021/10/30 02:05:59;;;;;;;10.48;7.95;;;;;;;8.41;87.93;100272.09;5029900;28;20052;-85
2021/10/30 02:08:26;;;;;;;14.23;9.38;;;;;;;8.40;87.62;100268.59;5036183;28;20112;-86
2021/10/30 02:10:53;;;;;;;11.98;8.00;;;;;;;8.40;87.70;100263.38;5030649;28;20459;-85
2021/10/30 02:13:21;;;;;;;10.68;8.30;;;;;;;8.37;88.17;100265.13;5033342;28;20526;-85
2021/10/30 02:15:48;;;;;;;15.65;8.35;;;;;;;8.35;88.05;100264.28;5015918;28;20049;-86
2021/10/30 02:18:15;;;;;;;10.52;7.68;;;;;;;8.33;88.66;100253.00;5016667;28;20077;-84
2021/10/30 02:20:42;;;;;;;11.93;8.13;;;;;;;8.30;88.10;100251.28;5020730;28;20566;-84
2021/10/30 02:23:09;;;;;;;11.88;8.38;;;;;;;8.29;88.69;100254.75;5021101;28;20049;-85
2021/10/30 02:25:36;;;;;;;13.02;9.02;;;;;;;8.27;88.37;100248.69;5021103;28;20069;-83
2021/10/30 02:28:04;;;;;;;10.13;7.63;;;;;;;8.27;88.45;100248.69;5050065;28;20168;-83
2021/10/30 02:30:31;;;;;;;10.20;8.75;;;;;;;8.25;88.46;100253.03;5019042;28;20122;-83
2021/10/30 02:33:00;;;;;;;11.35;8.25;;;;;;;8.26;88.97;100250.41;5037509;28;20037;-83
2021/10/30 02:35:27;;;;;;;10.93;7.82;;;;;;;8.28;88.76;100247.81;5010261;28;20060;-85
2021/10/30 02:37:53;;;;;;;11.00;8.13;;;;;;;8.28;88.80;100238.25;5020294;28;23162;-82
2021/10/30 02:40:20;;;;;;;10.88;8.27;;;;;;;8.30;88.90;100238.22;5013512;28;20084;-85
2021/10/30 02:42:46;;;;;;;11.13;8.48;;;;;;;8.32;88.62;100233.00;5019523;28;20132;-83
2021/10/30 02:45:16;;;;;;;8.68;6.70;;;;;;;8.34;88.39;100231.25;5014368;28;20053;-83
2021/10/30 02:47:43;;;;;;;12.52;8.05;;;;;;;8.37;88.69;100228.63;5020553;28;20048;-86
2021/10/30 02:50:10;;;;;;;12.48;7.50;;;;;;;8.39;88.63;100232.94;5031294;28;20053;-84
2021/10/30 02:52:36;;;;;;;9.18;7.53;;;;;;;8.42;88.14;100230.34;5029246;28;20045;-85
2021/10/30 02:55:03;;;;;;;11.77;7.40;;;;;;;8.45;88.43;100229.47;5019431;28;20111;-86
2021/10/30 02:57:30;;;;;;;11.82;7.07;;;;;;;8.48;88.13;100234.66;5031150;28;20068;-84
2021/10/30 02:59:57;;;;;;;8.57;7.05;;;;;;;8.48;87.98;100237.28;5031576;28;20045;-84
2021/10/30 03:02:23;;;;;;;10.02;7.45;;;;;;;8.45;88.29;100234.66;5017906;28;20041;-86
2021/10/30 03:04:50;;;;;;;8.48;6.75;;;;;;;8.45;88.32;100237.28;5030162;28;20049;-83
2021/10/30 03:07:18;;;;;;;11.95;7.78;;;;;;;8.43;88.11;100228.59;5037076;28;20053;-84
2021/10/30 03:09:49;;;;;;;11.70;7.63;;;;;;;8.39;88.61;100222.50;5027169;28;20041;-84
2021/10/30 03:12:20;;;;;;;10.63;7.30;;;;;;;8.36;88.66;100226.91;5015955;28;20057;-85
2021/10/30 03:14:47;;;;;;;8.35;6.80;;;;;;;8.34;88.58;100226.91;5026134;28;20060;-85
2021/10/30 03:17:14;;;;;;;11.65;7.80;;;;;;;8.32;88.81;100223.44;5021328;28;20542;-85
2021/10/30 03:19:41;;;;;;;13.07;8.57;;;;;;;8.28;88.94;100220.00;5032913;28;20206;-84
2021/10/30 03:22:08;;;;;;;11.40;6.95;;;;;;;8.30;88.92;100216.50;5045715;28;20068;-86
2021/10/30 03:24:36;;;;;;;12.30;8.50;;;;;;;8.31;88.80;100219.09;5037566;28;20049;-84
2021/10/30 03:27:03;;;;;;;16.55;9.50;;;;;;;8.37;88.65;100218.19;5036720;28;20045;-84
2021/10/30 03:29:30;;;;;;;12.68;8.80;;;;;;;8.40;88.32;100216.44;5036108;28;20049;-86
2021/10/30 03:31:57;;;;;;;14.43;8.52;;;;;;;8.39;87.92;100209.47;5030284;28;20435;-83
2021/10/30 03:34:23;;;;;;;11.45;7.60;;;;;;;8.39;88.06;100216.44;5049102;28;20833;-87
2021/10/30 03:36:50;;;;;;;14.00;8.52;;;;;;;8.41;87.94;100215.56;5034096;28;20426;-86
2021/10/30 03:39:17;;;;;;;8.82;7.75;;;;;;;8.44;87.64;100210.31;5007903;28;20048;-84
2021/10/30 03:41:45;;;;;;;10.05;8.18;;;;;;;8.44;87.93;100210.31;5032282;28;20054;-85
2021/10/30 03:44:19;;;;;;;11.55;8.68;;;;;;;8.45;87.63;100200.75;5033018;28;20052;-83
2021/10/30 03:46:45;;;;;;;15.23;8.80;;;;;;;8.46;87.35;100204.25;5019560;28;20053;-84
2021/10/30 03:49:12;;;;;;;15.15;9.82;;;;;;;8.50;87.39;100195.53;5017711;28;20060;-86
2021/10/30 03:51:39;;;;;;;11.02;8.93;;;;;;;8.50;86.73;100192.91;5025913;28;20072;-85
2021/10/30 03:54:06;;;;;;;13.27;9.35;;;;;;;8.50;86.78;100191.19;5027685;28;20048;-85
2021/10/30 03:56:32;;;;;;;12.10;8.73;;;;;;;8.50;86.90;100185.97;5035097;28;20045;-85
2021/10/30 03:58:59;;;;;;;13.07;8.98;;;;;;;8.53;86.31;100185.94;5034376;28;20045;-86
2021/10/30 04:01:26;;;;;;;12.07;8.65;;;;;;;8.54;86.17;100176.34;5014011;28;20049;-83
2021/10/30 04:03:56;;;;;;;13.32;9.25;;;;;;;8.54;86.13;100179.84;5017644;28;20397;-84
2021/10/30 04:06:23;;;;;;;12.45;8.77;;;;;;;8.56;86.24;100179.84;5033646;28;20049;-86
2021/10/30 04:08:50;;;;;;;14.30;8.27;;;;;;;8.58;85.87;100171.13;5019076;28;20055;-83
2021/10/30 04:11:17;;;;;;;14.77;8.38;;;;;;;8.57;85.82;100182.41;5029522;28;20049;-86
2021/10/30 04:13:47;;;;;;;12.35;9.55;;;;;;;8.56;85.57;100185.91;5031583;28;20151;-84
2021/10/30 04:16:16;;;;;;;13.70;10.02;;;;;;;8.58;85.51;100178.94;5017871;28;20045;-86
2021/10/30 04:18:44;;;;;;;12.20;9.15;;;;;;;8.58;85.64;100184.16;5015893;28;20049;-84
2021/10/30 04:21:12;;;;;;;12.73;9.90;;;;;;;8.57;85.81;100189.41;5033718;28;20077;-85
2021/10/30 04:23:40;;;;;;;11.77;8.57;;;;;;;8.54;85.50;100189.41;5032898;28;20049;-83
2021/10/30 04:26:08;;;;;;;9.85;7.85;;;;;;;8.53;85.45;100182.47;5022682;28;20094;-84
2021/10/30 04:28:35;;;;;;;10.45;9.25;;;;;;;8.52;85.83;100184.19;5032075;28;20049;-86
2021/10/30 04:31:04;;;;;;;18.42;9.48;;;;;;;8.56;85.14;100174.63;5034115;28;20093;-85
2021/10/30 04:33:32;;;;;;;11.77;9.30;;;;;;;8.56;84.96;100169.41;5018754;28;20050;-84
2021/10/30 04:36:01;;;;;;;10.85;8.10;;;;;;;8.59;84.86;100167.63;5020271;28;20054;-84
2021/10/30 04:38:28;;;;;;;10.32;8.27;;;;;;;8.61;84.52;100152.81;5018421;28;20053;-86
2021/10/30 04:40:56;;;;;;;12.63;8.60;;;;;;;8.65;84.31;100158.88;5046755;28;20041;-84
2021/10/30 04:43:22;;;;;;;10.25;8.02;;;;;;;8.64;83.90;100153.69;5014161;28;20121;-85
2021/10/30 04:45:52;;;;;;;11.63;8.40;;;;;;;8.61;84.19;100162.41;5020789;28;20770;-84
2021/10/30 04:48:22;;;;;;;14.48;8.93;;;;;;;8.59;84.18;100161.53;5029476;28;20041;-84
2021/10/30 04:50:49;;;;;;;12.98;8.88;;;;;;;8.60;83.94;100152.84;5028770;28;20607;-85
2021/10/30 04:53:15;;;;;;;16.25;8.57;;;;;;;8.66;83.15;100144.94;5023070;28;20547;-85
2021/10/30 04:55:42;;;;;;;12.02;8.32;;;;;;;8.71;82.33;100145.78;5029027;28;20561;-85
2021/10/30 04:58:09;;;;;;;14.95;9.60;;;;;;;8.72;82.39;100155.34;5018697;28;20049;-86
2021/10/30 05:00:38;;;;;;;12.80;9.10;;;;;;;8.69;82.29;100160.56;5029037;28;20053;-83
2021/10/30 05:03:05;;;;;;;12.27;9.25;;;;;;;8.65;82.25;100158.88;5035422;28;20103;-86
2021/10/30 05:05:31;;;;;;;13.50;9.32;;;;;;;8.58;82.81;100149.38;5031382;28;20064;-86
2021/10/30 05:07:58;;;;;;;14.68;9.73;;;;;;;8.56;82.95;100146.78;5035173;28;20049;-84
2021/10/30 05:10:25;;;;;;;12.07;9.30;;;;;;;8.51;82.73;100135.50;5012869;28;20044;-84
2021/10/30 05:12:52;;;;;;;16.00;9.70;;;;;;;8.49;82.81;100137.28;5018412;28;20052;-85
2021/10/30 05:15:19;;;;;;;13.90;9.13;;;;;;;8.48;82.74;100142.53;5030820;28;20064;-87
2021/10/30 05:17:46;;;;;;;11.80;9.00;;;;;;;8.45;82.95;100145.97;5017910;28;20056;-84
2021/10/30 05:20:13;;;;;;;16.35;10.38;;;;;;;8.47;82.14;100131.19;5032590;28;20057;-86
2021/10/30 05:22:39;;;;;;;14.57;9.50;;;;;;;8.46;81.96;100126.88;5021138;28;20415;-86
2021/10/30 05:25:07;;;;;;;16.88;10.68;;;;;;;8.42;82.36;100132.94;5014075;28;20038;-83
2021/10/30 05:27:34;;;;;;;12.93;9.50;;;;;;;8.41;82.17;100121.66;5021842;28;20121;-86
2021/10/30 05:30:01;;;;;;;15.68;9.50;;;;;;;8.38;82.23;100116.50;5011946;28;20547;-83
2021/10/30 05:32:28;;;;;;;15.18;10.30;;;;;;;8.33;82.73;100120.88;5034994;28;20049;-86
2021/10/30 05:34:54;;;;;;;14.23;10.55;;;;;;;8.33;82.46;100115.66;5030391;28;20049;-83
2021/10/30 05:37:21;;;;;;;16.92;12.10;;;;;;;8.35;82.10;100116.50;5033797;28;20053;-84
2021/10/30 05:39:48;;;;;;;14.32;10.45;;;;;;;8.36;81.87;100105.19;5032945;28;20045;-86
2021/10/30 05:42:16;;;;;;;16.30;10.85;;;;;;;8.35;81.68;100108.66;5035219;28;20225;-86
2021/10/30 05:44:47;;;;;;;15.07;9.82;;;;;;;8.37;81.94;100108.66;5019288;28;20134;-84
2021/10/30 05:47:14;;;;;;;17.98;10.45;;;;;;;8.35;81.62;100113.88;5012463;28;20196;-84
2021/10/30 05:49:43;;;;;;;17.35;11.40;;;;;;;8.34;81.72;100112.16;5035249;28;20037;-85
2021/10/30 05:52:12;;;;;;;15.75;10.27;;;;;;;8.34;81.94;100119.97;5017090;28;20052;-85
2021/10/30 05:54:39;;;;;;;15.00;10.23;;;;;;;8.35;81.44;100108.66;5010755;28;20045;-84
2021/10/30 05:57:11;;;;;;;14.65;10.95;;;;;;;8.38;81.58;100118.22;5019537;28;20076;-84
2021/10/30 05:59:38;;;;;;;14.63;10.32;;;;;;;8.38;81.50;100110.38;5024483;28;20045;-83
2021/10/30 06:02:10;;;;;;;16.40;10.73;;;;;;;8.34;81.84;100112.16;5037787;28;20567;-86
2021/10/30 06:04:37;;;;;;;16.45;11.55;;;;;;;8.32;81.64;100113.91;5031418;28;20773;-86
2021/10/30 06:07:05;;;;;;;15.48;10.07;;;;;;;8.32;81.77;100115.66;5030984;28;20223;-83
2021/10/30 06:09:33;;;;;;;16.65;10.55;;;;;;;8.32;81.63;100111.31;5021399;28;20045;-86
2021/10/30 06:12:01;;;;;;;15.98;10.57;;;;;;;8.31;81.47;100112.19;5014429;28;20049;-85
2021/10/30 06:14:28;;;;;;;12.05;9.43;;;;;;;8.29;81.97;100108.72;5029838;28;20041;-86
2021/10/30 06:17:00;;;;;;;14.75;10.23;;;;;;;8.26;81.71;100104.38;5016978;28;20037;-83
2021/10/30 06:19:28;;;;;;;14.45;10.05;;;;;;;8.26;82.05;100112.22;5039934;28;20044;-84
2021/10/30 06:21:56;;;;;;;12.80;9.63;;;;;;;8.25;82.11;100112.22;5046691;28;20053;-82
2021/10/30 06:24:22;;;;;;;19.00;11.10;;;;;;;8.26;82.44;100114.81;5035904;28;20064;-84
2021/10/30 06:26:49;;;;;;;15.13;10.77;;;;;;;8.28;82.24;100110.47;5023072;28;20048;-84
2021/10/30 06:29:16;;;;;;;12.18;10.07;;;;;;;8.30;81.44;100105.22;5045336;28;20045;-84
2021/10/30 06:31:43;;;;;;;14.45;10.10;;;;;;;8.35;81.58;100111.28;5032054;28;20970;-86
2021/10/30 06:34:11;;;;;;;15.18;10.68;;;;;;;8.39;81.37;100106.91;5032290;28;20045;-86
2021/10/30 06:36:38;;;;;;;16.77;11.07;;;;;;;8.44;80.43;100095.53;5020191;28;20061;-85
2021/10/30 06:39:05;;;;;;;13.48;10.07;;;;;;;8.56;79.34;100099.81;5019948;28;20045;-84
2021/10/30 06:41:33;;;;;;;13.27;10.93;;;;;;;8.65;78.50;100095.41;5028316;28;20175;-83
2021/10/30 06:44:00;;;;;;;13.52;11.40;;;;;;;8.72;78.04;100089.22;5032169;28;20057;-84
2021/10/30 06:46:27;;;;;;;15.38;10.80;;;;;;;8.74;78.30;100088.31;5035072;28;20062;-85
2021/10/30 06:48:55;;;;;;;15.88;11.85;;;;;;;8.74;77.79;100085.72;5039423;28;20083;-84
2021/10/30 06:51:26;;;;;;;15.85;9.90;;;;;;;8.75;77.80;100084.00;5024995;28;20613;-85
2021/10/30 06:53:53;;;;;;;17.23;10.40;;;;;;;8.75;77.37;100081.38;5039798;28;20144;-83
2021/10/30 06:56:21;;;;;;;12.57;9.85;;;;;;;8.75;76.84;100082.22;5036958;28;20048;-86
2021/10/30 06:58:52;;;;;;;13.40;10.32;;;;;;;8.74;77.36;100080.50;5036013;28;20076;-85
2021/10/30 07:01:19;;;;;;;15.57;10.10;;;;;;;8.73;77.09;100075.31;5023948;28;20041;-83
2021/10/30 07:03:46;;;;;;;16.83;9.60;;;;;;;8.71;77.29;100077.09;5034808;28;20053;-84
2021/10/30 07:06:13;;;;;;;14.95;10.80;;;;;;;8.67;77.14;100072.75;5035090;28;20052;-84
2021/10/30 07:08:39;;;;;;;15.13;11.40;;;;;;;8.70;77.01;100075.34;5039609;28;20068;-85
2021/10/30 07:11:06;;;;;;;12.10;9.65;;;;;;;8.72;77.08;100073.56;5035818;28;20067;-85
2021/10/30 07:13:37;;;;;;;15.10;10.80;;;;;;;8.71;77.39;100077.09;5019909;28;20053;-84
2021/10/30 07:16:04;;;;;;;17.48;11.68;;;;;;;8.72;77.00;100089.22;5021517;28;20432;-87
2021/10/30 07:18:35;;;;;;;18.25;11.38;;;;;;;8.74;76.78;100090.09;5021549;28;20127;-86
2021/10/30 07:21:02;;;;;;;14.55;10.38;;;;;;;8.80;76.37;100090.03;5038893;28;20511;-85
2021/10/30 07:23:31;;;;;;;16.25;10.65;;;;;;;8.85;76.21;100093.44;5028093;28;20099;-85
2021/10/30 07:25:58;;;;;;;15.23;10.43;;;;;;;8.89;76.70;100086.44;5043097;28;20060;-84
2021/10/30 07:28:25;;;;;;;15.05;10.70;;;;;;;8.88;76.51;100077.75;5033404;28;20527;-86
2021/10/30 07:30:52;;;;;;;18.15;10.45;;;;;;;8.91;76.95;100079.47;5040448;28;20092;-85
2021/10/30 07:33:21;;;;;;;14.60;10.27;;;;;;;8.95;76.51;100086.38;5048887;28;20033;-84
2021/10/30 07:35:48;;;;;;;16.83;10.38;;;;;;;9.01;76.57;100094.13;5039087;28;20042;-87
2021/10/30 07:38:16;;;;;;;14.13;9.95;;;;;;;9.06;76.34;100096.69;5037096;28;20063;-86
2021/10/30 07:40:43;;;;;;;13.38;10.63;;;;;;;9.11;75.68;100092.25;5035027;28;20101;-84
2021/10/30 07:43:10;;;;;;;17.67;10.73;;;;;;;9.20;75.05;100093.91;5023093;28;20053;-85
2021/10/30 07:45:37;;;;;;;12.65;10.07;;;;;;;9.35;74.05;100096.34;5031544;28;20080;-85
2021/10/30 07:48:03;;;;;;;13.57;10.32;;;;;;;9.50;72.74;100099.63;5023833;28;20086;-86
2021/10/30 07:50:30;;;;;;;16.83;10.40;;;;;;;9.60;72.47;100099.47;5017169;28;20857;-84
2021/10/30 07:53:03;;;;;;;17.08;11.38;;;;;;;9.70;72.28;100092.38;5052473;28;20041;-84
2021/10/30 07:55:30;;;;;;;16.63;10.90;;;;;;;9.80;71.63;100095.69;5026163;28;20072;-85
2021/10/30 07:58:05;;;;;;;17.05;11.85;;;;;;;9.89;71.40;100087.72;5021142;28;20085;-85
2021/10/30 08:00:34;;;;;;;14.93;9.65;;;;;;;9.99;70.72;100092.84;5023634;28;20576;-86
2021/10/30 08:03:04;;;;;;;14.35;10.52;;;;;;;10.11;70.21;100079.56;5022155;28;20053;-86
2021/10/30 08:05:31;;;;;;;15.30;11.13;;;;;;;10.26;69.36;100078.44;5049595;28;20725;-85
2021/10/30 08:08:08;;;;;;;18.02;11.95;;;;;;;10.42;68.61;100085.16;5020585;28;20083;-85
2021/10/30 08:10:38;;;;;;;15.85;10.88;;;;;;;10.61;68.04;100081.34;5025841;28;20122;-86
2021/10/30 08:13:15;;;;;;;13.75;10.57;;;;;;;10.76;66.84;100074.06;5027341;28;20056;-86
2021/10/30 08:15:48;;;;;;;18.27;11.02;;;;;;;10.91;65.09;100072.94;5024938;28;20427;-84
2021/10/30 08:18:14;;;;;;;18.35;12.18;;;;;;;11.05;65.10;100077.88;5028218;28;20496;-87
2021/10/30 08:20:46;;;;;;;18.55;12.43;;;;;;;11.17;64.23;100078.53;5040654;28;21035;-87
2021/10/30 08:23:13;;;;;;;15.50;10.88;;;;;;;11.29;63.61;100074.78;5040720;28;20045;-86
2021/10/30 08:25:43;;;;;;;16.15;11.85;;;;;;;11.37;64.39;100078.97;5032633;28;20092;-85
2021/10/30 08:28:10;;;;;;;17.50;11.07;;;;;;;11.40;63.44;100073.66;5021156;28;20116;-86
2021/10/30 08:30:37;;;;;;;16.83;11.30;;;;;;;11.40;63.59;100072.78;5034371;28;20595;-87
2021/10/30 08:33:04;;;;;;;15.90;10.30;;;;;;;11.40;64.01;100075.41;5012788;28;20048;-85
2021/10/30 08:35:31;;;;;;;13.57;10.68;;;;;;;11.41;63.70;100064.03;5032013;28;20056;-86
2021/10/30 08:37:58;;;;;;;16.05;11.05;;;;;;;11.49;63.07;100062.09;5037709;28;20045;-87
2021/10/30 08:40:24;;;;;;;13.95;11.00;;;;;;;11.48;63.53;100057.75;5035159;28;20052;-87
2021/10/30 08:42:53;;;;;;;13.63;10.60;;;;;;;11.52;64.05;100062.03;5041935;28;20053;-87
2021/10/30 08:45:21;;;;;;;16.73;10.73;;;;;;;11.58;63.04;100061.06;5030592;28;20045;-86
2021/10/30 08:47:49;;;;;;;13.35;9.88;;;;;;;11.65;63.95;100069.63;5018502;28;20136;-85
2021/10/30 08:50:20;;;;;;;13.88;10.38;;;;;;;11.67;64.17;100066.09;5046274;28;20059;-84
2021/10/30 08:52:56;;;;;;;15.00;11.20;;;;;;;11.67;64.07;100047.72;5031519;28;20040;-87
2021/10/30 08:55:23;;;;;;;12.85;10.10;;;;;;;11.64;63.71;100047.81;5036024;28;20566;-86
2021/10/30 08:57:50;;;;;;;11.23;9.77;;;;;;;11.55;64.27;100040.13;5041444;28;20044;-86
2021/10/30 09:00:38;;;;;;;13.77;10.90;;;;;;;11.50;64.42;100044.63;5023441;28;21246;-85
2021/10/30 09:03:17;;;;;;;13.15;9.98;;;;;;;11.47;65.07;100039.44;5023109;28;20045;-86
2021/10/30 09:05:48;;;;;;;12.13;10.52;;;;;;;11.42;65.11;100047.44;5038111;28;20060;-86
2021/10/30 09:08:15;;;;;;;13.15;9.98;;;;;;;11.40;65.03;100036.97;5035869;28;20045;-86
2021/10/30 09:10:49;;;;;;;11.20;9.55;;;;;;;11.41;65.41;100024.75;5031981;28;20057;-87
2021/10/30 09:13:16;;;;;;;;;;;;;;;11.45;64.99;100007.19;5034595;28;20053;-87
2021/10/30 09:15:49;;;;;;;12.90;9.73;;;;;;;11.51;65.12;99992.19;5019026;28;19933;-85
2021/10/30 09:18:30;;;;;;;;;;;;;;;11.51;64.68;99996.53;5019783;28;20486;-85
2021/10/30 09:21:18;;;;;;;18.17;9.25;;;;;;;11.57;65.10;99999.88;5033029;28;19931;-85
2021/10/30 09:23:59;;;;;;;15.25;8.98;;;;;;;11.64;65.06;99989.25;5036616;28;20044;-84
2021/10/30 09:26:41;;;;;;;14.10;9.63;;;;;;;11.69;65.13;99990.00;5034566;28;20092;-85
2021/10/30 09:29:13;;;;;;;11.20;9.10;;;;;;;11.73;65.29;99979.41;5020878;28;20059;-84
2021/10/30 09:31:39;;;;;;;14.05;9.70;;;;;;;11.78;65.05;99984.53;5016425;28;20087;-86
2021/10/30 09:34:08;;;;;;;13.15;9.55;;;;;;;11.80;65.23;99981.88;5017119;28;20052;-84
2021/10/30 09:36:43;;;;;;;10.05;8.25;;;;;;;11.83;64.90;99980.03;5027266;28;20045;-85
2021/10/30 09:39:17;;;;;;;10.70;8.52;;;;;;;11.86;64.54;99974.72;5031602;28;20056;-83
2021/10/30 09:41:48;;;;;;;10.27;8.82;;;;;;;11.92;64.88;99966.69;5029056;28;20052;-87
2021/10/30 09:44:24;;;;;;;12.02;8.82;;;;;;;12.04;64.80;99965.53;5035218;28;20044;-86
2021/10/30 09:46:57;;;;;;;11.60;8.55;;;;;;;12.14;64.31;99963.56;5014787;28;20354;-84
2021/10/30 09:49:28;;;;;;;11.10;8.23;;;;;;;12.20;63.79;99960.78;5015677;28;20052;-85
2021/10/30 09:52:14;;;;;;;9.90;8.48;;;;;;;12.22;64.45;99958.09;5034900;28;20056;-86
2021/10/30 09:54:48;;;;;;;11.27;8.60;;;;;;;12.24;64.38;99951.91;5029985;28;20435;-85
2021/10/30 09:57:32;;;;;;;9.63;8.57;;;;;;;12.23;63.76;99944.94;5021319;28;20049;-85
2021/10/30 10:00:07;;;;;;;10.95;7.97;;;;;;;12.23;64.50;99941.47;5016229;28;20057;-85
2021/10/30 10:02:38;;;;;;;11.65;7.60;;;;;;;12.25;64.77;99942.25;5023440;28;20061;-86
2021/10/30 10:05:06;;;;;;;10.52;7.63;;;;;;;12.30;64.72;99939.53;5033713;28;20052;-86
2021/10/30 10:07:35;;;;;;;8.63;6.82;;;;;;;12.32;65.08;99940.31;5051390;28;20114;-85
2021/10/30 10:10:02;;;;;;;9.02;7.90;;;;;;;12.31;65.08;99925.50;5050174;28;20021;-87
2021/10/30 10:12:33;;;;;;;9.15;7.30;;;;;;;12.28;65.59;99921.19;5032608;28;20049;-87
2021/10/30 10:15:03;;;;;;;8.82;6.45;;;;;;;12.26;65.34;99928.25;5023442;28;20037;-86
2021/10/30 10:17:33;;;;;;;10.10;6.97;;;;;;;12.20;65.37;99916.16;5018474;28;20668;-86
2021/10/30 10:20:06;;;;;;;10.95;7.05;;;;;;;12.16;65.18;99913.66;5018548;28;20045;-86
2021/10/30 10:22:33;;;;;;;8.10;6.77;;;;;;;12.14;65.56;99911.06;5024401;28;20504;-86
2021/10/30 10:25:38;;;;;;;8.00;6.43;;;;;;;12.17;65.38;99905.72;5041141;28;20049;-86
2021/10/30 10:28:34;;;;;;;7.95;6.82;;;;;;;12.24;65.49;99902.06;5021378;28;20052;-85
2021/10/30 10:31:34;;;;;;;7.53;6.32;;;;;;;12.34;65.35;99886.88;5034975;28;20045;-83
2021/10/30 10:34:20;;;;;;;8.70;5.47;;;;;;;12.39;65.23;99876.28;5020886;28;20136;-85
2021/10/30 10:37:12;;;;;;;6.78;5.38;;;;;;;12.41;65.68;99862.19;5022791;28;20044;-84
2021/10/30 10:39:54;;;;;;;9.18;5.65;;;;;;;12.40;65.51;99859.63;5032073;28;20056;-84
2021/10/30 10:42:36;;;;;;;8.90;5.80;;;;;;;12.41;65.32;99850.81;5026753;28;20547;-84
2021/10/30 10:45:17;;;;;;;8.85;5.82;;;;;;;12.46;64.32;99854.16;5038663;28;20052;-87
2021/10/30 10:47:49;;;;;;;7.30;5.88;;;;;;;12.55;64.80;99871.44;5021877;28;20045;-86
2021/10/30 10:50:24;;;;;;;8.80;4.50;;;;;;;12.61;64.35;99871.25;5053565;28;20114;-85
2021/10/30 10:53:19;;;;;;;5.55;4.57;;;;;;;12.69;63.97;99871.03;5036783;28;20037;-85
2021/10/30 10:55:52;;;;;;;6.00;5.40;;;;;;;12.76;63.74;99869.91;5038097;28;20065;-84
2021/10/30 10:58:19;;;;;;;6.20;4.38;;;;;;;12.79;63.50;99859.34;5034506;28;20049;-87
2021/10/30 11:01:11;;;;;;;8.02;5.15;;;;;;;12.82;63.13;99866.25;5039519;28;20076;-85
2021/10/30 11:03:46;;;;;;;7.70;5.05;;;;;;;12.82;63.61;99868.88;5037158;28;20406;-84
2021/10/30 11:06:13;;;;;;;6.57;4.93;;;;;;;12.82;63.12;99864.47;5025010;28;20720;-84
2021/10/30 11:08:40;;;;;;;6.25;4.88;;;;;;;12.85;63.37;99866.16;5017436;28;20045;-84
2021/10/30 11:11:27;;;;;;;8.13;5.35;;;;;;;12.86;62.89;99860.00;5018581;28;20061;-86
2021/10/30 11:14:08;;;;;;;5.35;4.80;;;;;;;12.89;63.53;99863.41;5035625;28;20588;-84
2021/10/30 11:16:40;;;;;;;7.72;4.40;;;;;;;12.92;63.46;99862.44;5023219;28;20049;-86
2021/10/30 11:19:19;;;;;;;6.75;4.38;;;;;;;12.97;63.56;99865.78;5050995;28;20049;-84
2021/10/30 11:22:06;;;;;;;6.93;5.13;;;;;;;13.01;62.91;99850.75;5033289;28;20848;-84
2021/10/30 11:24:33;;;;;;;5.72;4.57;;;;;;;13.01;62.64;99843.75;5054740;28;20342;-83
2021/10/30 11:27:07;;;;;;;5.38;4.82;;;;;;;13.00;62.33;99849.91;5039118;28;20060;-86
2021/10/30 11:29:36;;;;;;;3.70;3.40;;;;;;;13.03;62.77;99856.84;5037479;28;20052;-85
2021/10/30 11:32:06;;;;;;;5.35;3.83;;;;;;;13.11;62.56;99849.56;5034256;28;20071;-84
2021/10/30 11:34:34;;;;;;;6.60;4.95;;;;;;;13.14;62.18;99851.22;5043147;28;22717;-85
2021/10/30 11:37:01;;;;;;;5.40;4.80;;;;;;;13.16;62.41;99839.75;5053710;28;20358;-85